Time;durP1;ratioP1;P1;durP2;ratioP2;P2;SDS_P1;SDS_P2;PMS_P1;PMS_P2;Temp;Humidity;BMP_temperature;BMP_pressure;BME280_temperature;BME280_humidity;BME280_pressure;Samples;Min_cycle;Max_cycle;Signal;HPM_P1;HPM_P2
2022/04/22 00:01:29;;;;;;;11.43;7.63;;;;;;;9.21;100.00;100830.81;5351775;27;20062;-75
2022/04/22 00:04:00;;;;;;;14.18;7.38;;;;;;;9.11;100.00;100819.28;5355397;27;20019;-75
2022/04/22 00:06:31;;;;;;;9.27;7.68;;;;;;;9.13;100.00;100816.50;5351543;27;20050;-75
2022/04/22 00:09:02;;;;;;;10.77;7.10;;;;;;;9.08;100.00;100808.91;5351413;27;20035;-75
2022/04/22 00:11:34;;;;;;;11.27;7.85;;;;;;;8.99;100.00;100813.22;5349512;27;20034;-75
2022/04/22 00:14:05;;;;;;;10.20;7.75;;;;;;;8.96;100.00;100815.28;5349441;27;20028;-75
2022/04/22 00:16:36;;;;;;;9.50;7.85;;;;;;;8.94;100.00;100814.59;5353735;27;20023;-75
2022/04/22 00:19:07;;;;;;;11.32;8.23;;;;;;;8.85;100.00;100811.75;5347598;27;20123;-75
2022/04/22 00:21:41;;;;;;;11.90;7.57;;;;;;;8.81;100.00;100812.97;5351222;27;20314;-75
2022/04/22 00:24:14;;;;;;;10.07;8.10;;;;;;;8.77;100.00;100803.59;5349829;27;20036;-75
2022/04/22 00:26:45;;;;;;;12.18;8.75;;;;;;;8.79;100.00;100814.09;5349940;27;20020;-74
2022/04/22 00:29:17;;;;;;;9.45;7.60;;;;;;;8.83;100.00;100812.84;5352151;27;20087;-74
2022/04/22 00:31:48;;;;;;;14.38;8.57;;;;;;;8.78;100.00;100812.41;5349264;27;20135;-75
2022/04/22 00:34:20;;;;;;;9.32;7.80;;;;;;;8.70;100.00;100802.44;5350118;27;20035;-75
2022/04/22 00:36:51;;;;;;;11.90;8.13;;;;;;;8.72;100.00;100800.47;5351301;27;20110;-75
2022/04/22 00:39:23;;;;;;;9.57;8.20;;;;;;;8.71;100.00;100806.75;5354625;27;20031;-75
2022/04/22 00:41:54;;;;;;;9.40;8.05;;;;;;;8.66;100.00;100799.19;5349803;27;20125;-75
2022/04/22 00:44:26;;;;;;;9.80;8.27;;;;;;;8.58;100.00;100803.47;5349830;27;20023;-75
2022/04/22 00:46:57;;;;;;;14.05;8.75;;;;;;;8.57;100.00;100799.13;5347523;27;20129;-74
2022/04/22 00:49:28;;;;;;;11.30;8.65;;;;;;;8.61;100.00;100801.41;5347797;27;20491;-75
2022/04/22 00:52:01;;;;;;;8.65;7.68;;;;;;;8.61;100.00;100797.91;5347734;27;20070;-74
2022/04/22 00:54:33;;;;;;;10.60;8.90;;;;;;;8.58;100.00;100790.19;5348566;27;20039;-75
2022/04/22 00:57:05;;;;;;;9.95;7.70;;;;;;;8.57;100.00;100788.50;5343856;27;20023;-75
2022/04/22 00:59:37;;;;;;;11.60;8.30;;;;;;;8.52;100.00;100792.41;5350642;27;20054;-74
2022/04/22 01:02:08;;;;;;;9.48;8.13;;;;;;;8.47;100.00;100777.81;5350700;27;20038;-74
2022/04/22 01:10:19;;;;;;;14.75;8.68;;;;;;;8.46;100.00;100784.09;5348015;27;20778;-74
2022/04/22 01:12:51;;;;;;;11.30;8.98;;;;;;;8.39;100.00;100781.06;5348271;27;20034;-75
2022/04/22 01:15:23;;;;;;;10.90;8.57;;;;;;;8.39;100.00;100777.56;5350105;27;20027;-75
2022/04/22 01:17:54;;;;;;;12.68;9.05;;;;;;;8.29;100.00;100781.03;5343466;27;20491;-75
2022/04/22 01:20:27;;;;;;;10.93;8.88;;;;;;;8.24;100.00;100766.41;5347177;27;20016;-74
2022/04/22 01:22:58;;;;;;;11.10;8.63;;;;;;;8.29;100.00;100773.03;5349410;27;20499;-74
2022/04/22 01:25:29;;;;;;;12.40;8.88;;;;;;;8.26;100.00;100770.63;5346514;27;20059;-75
2022/04/22 01:28:01;;;;;;;11.55;9.32;;;;;;;8.33;100.00;100771.81;5349858;27;20103;-75
2022/04/22 01:30:33;;;;;;;13.73;9.57;;;;;;;8.36;100.00;100761.88;5352600;27;20055;-74
2022/04/22 01:33:04;;;;;;;13.05;9.80;;;;;;;8.41;100.00;100762.34;5349381;27;20133;-74
2022/04/22 01:35:35;;;;;;;11.95;9.38;;;;;;;8.37;100.00;100767.06;5346602;27;20034;-75
2022/04/22 01:38:06;;;;;;;14.73;9.60;;;;;;;8.43;100.00;100765.72;5345540;27;20028;-75
2022/04/22 01:40:38;;;;;;;15.90;10.18;;;;;;;8.42;100.00;100759.59;5345792;27;20030;-73
2022/04/22 01:43:09;;;;;;;13.48;9.85;;;;;;;8.45;100.00;100762.00;5344223;27;20075;-75
2022/04/22 01:45:40;;;;;;;14.05;9.93;;;;;;;8.49;100.00;100760.75;5350353;27;20027;-75
2022/04/22 01:48:12;;;;;;;9.95;7.65;;;;;;;8.56;100.00;100763.72;5346302;27;20403;-75
2022/04/22 01:50:43;;;;;;;14.68;10.40;;;;;;;8.49;100.00;100758.09;5352951;27;20116;-75
2022/04/22 01:53:14;;;;;;;12.65;9.95;;;;;;;8.44;100.00;100768.25;5346056;27;20059;-74
2022/04/22 01:55:46;;;;;;;13.48;9.65;;;;;;;8.44;100.00;100767.44;5349116;27;20085;-74
2022/04/22 01:58:17;;;;;;;16.80;10.95;;;;;;;8.41;100.00;100767.66;5349374;27;20046;-74
2022/04/22 02:00:48;;;;;;;14.35;11.05;;;;;;;8.39;100.00;100764.28;5348493;27;20081;-74
2022/04/22 02:03:19;;;;;;;14.90;10.55;;;;;;;8.29;100.00;100767.72;5347023;27;20035;-74
2022/04/22 02:05:51;;;;;;;12.98;10.90;;;;;;;8.24;100.00;100767.28;5352287;27;20366;-75
2022/04/22 02:08:22;;;;;;;14.90;10.50;;;;;;;8.22;100.00;100763.03;5351804;27;20477;-75
2022/04/22 02:10:53;;;;;;;15.23;10.93;;;;;;;8.16;100.00;100761.75;5353070;27;20031;-75
2022/04/22 02:13:25;;;;;;;14.38;10.60;;;;;;;8.13;100.00;100764.66;5349716;27;20055;-75
2022/04/22 02:15:56;;;;;;;12.93;10.60;;;;;;;8.09;100.00;100771.22;5351645;27;20054;-75
2022/04/22 02:18:28;;;;;;;15.77;11.45;;;;;;;8.05;100.00;100769.78;5349676;27;20110;-75
2022/04/22 02:20:59;;;;;;;12.95;11.30;;;;;;;7.98;100.00;100764.13;5349136;27;20027;-75
2022/04/22 02:23:30;;;;;;;13.00;11.38;;;;;;;7.91;100.00;100762.97;5349988;27;20541;-75
2022/04/22 02:26:03;;;;;;;16.70;10.88;;;;;;;7.88;100.00;100760.56;5352882;27;20019;-75
2022/04/22 02:28:35;;;;;;;15.52;11.75;;;;;;;7.78;100.00;100760.47;5346574;27;20027;-75
2022/04/22 02:31:10;;;;;;;14.55;11.10;;;;;;;7.73;100.00;100758.19;5352520;27;20034;-75
2022/04/22 02:33:42;;;;;;;14.15;11.13;;;;;;;7.79;100.00;100767.47;5354375;27;20028;-75
2022/04/22 02:36:15;;;;;;;15.25;12.45;;;;;;;7.88;100.00;100761.38;5351403;27;20020;-75
2022/04/22 02:38:46;;;;;;;16.58;12.38;;;;;;;7.96;100.00;100760.78;5352549;27;20762;-75
2022/04/22 02:46:57;;;;;;;14.45;11.30;;;;;;;8.08;100.00;100749.13;5352895;27;20035;-75
2022/04/22 02:49:28;;;;;;;12.73;11.38;;;;;;;8.02;100.00;100746.97;5352110;27;20058;-75
2022/04/22 02:52:00;;;;;;;13.48;12.07;;;;;;;7.95;100.00;100740.47;5348169;27;20035;-75
2022/04/22 02:54:33;;;;;;;16.17;11.80;;;;;;;7.86;100.00;100747.41;5355102;27;20784;-75
2022/04/22 02:57:05;;;;;;;13.88;11.82;;;;;;;7.83;100.00;100754.78;5350076;27;20456;-74
2022/04/22 02:59:39;;;;;;;13.93;11.60;;;;;;;7.77;100.00;100748.16;5348425;27;20559;-74
2022/04/22 03:02:11;;;;;;;17.15;11.40;;;;;;;7.75;100.00;100742.97;5352682;27;20066;-75
2022/04/22 03:04:42;;;;;;;18.02;12.18;;;;;;;7.70;100.00;100742.50;5349385;27;20023;-75
2022/04/22 03:07:13;;;;;;;16.58;12.45;;;;;;;7.62;100.00;100739.63;5351334;27;20098;-75
2022/04/22 03:09:45;;;;;;;16.80;13.02;;;;;;;7.59;100.00;100739.91;5353867;27;20487;-74
2022/04/22 03:12:16;;;;;;;16.20;12.70;;;;;;;7.60;100.00;100730.97;5349615;27;20023;-74
2022/04/22 03:14:48;;;;;;;15.38;12.68;;;;;;;7.56;100.00;100733.03;5353552;27;20028;-74
2022/04/22 03:17:19;;;;;;;17.40;12.77;;;;;;;7.54;100.00;100728.81;5349162;27;20028;-74
2022/04/22 03:19:50;;;;;;;18.60;14.32;;;;;;;7.47;100.00;100731.13;5347871;27;20431;-74
2022/04/22 03:22:22;;;;;;;15.82;13.52;;;;;;;7.44;100.00;100728.72;5351081;27;20038;-74
2022/04/22 03:24:53;;;;;;;15.00;11.98;;;;;;;7.42;100.00;100724.53;5351404;27;20023;-75
2022/04/22 03:27:24;;;;;;;20.73;13.48;;;;;;;7.36;100.00;100729.34;5355490;27;20554;-75
2022/04/22 03:29:55;;;;;;;13.48;10.55;;;;;;;7.39;100.00;100733.56;5355323;27;20037;-75
2022/04/22 03:32:27;;;;;;;18.50;15.10;;;;;;;7.27;100.00;100739.84;5351754;27;20073;-74
2022/04/22 03:34:58;;;;;;;18.95;12.60;;;;;;;7.27;100.00;100730.06;5357085;27;20050;-75
2022/04/22 03:37:29;;;;;;;13.93;11.85;;;;;;;7.33;100.00;100731.41;5354502;27;20027;-75
2022/04/22 03:40:01;;;;;;;15.63;13.13;;;;;;;7.30;100.00;100721.03;5357087;27;20024;-74
2022/04/22 03:42:32;;;;;;;17.42;14.40;;;;;;;7.24;100.00;100726.81;5353022;27;20096;-74
2022/04/22 03:45:04;;;;;;;16.20;13.63;;;;;;;7.23;100.00;100728.66;5357151;27;20413;-74
2022/04/22 03:47:35;;;;;;;17.52;12.73;;;;;;;7.23;100.00;100735.78;5354414;27;20607;-74
2022/04/22 03:50:07;;;;;;;20.42;15.40;;;;;;;7.19;100.00;100722.75;5357191;27;20040;-74
2022/04/22 03:52:38;;;;;;;16.95;15.07;;;;;;;7.18;100.00;100725.53;5353225;27;20035;-74
2022/04/22 03:55:10;;;;;;;17.05;15.23;;;;;;;7.12;100.00;100715.41;5341994;27;20824;-74
2022/04/22 04:00:32;;;;;;;17.98;15.70;;;;;;;7.10;100.00;100709.38;5351431;27;20043;-75
2022/04/22 04:03:03;;;;;;;21.00;15.85;;;;;;;7.13;100.00;100709.97;5355009;27;20039;-73
2022/04/22 04:05:35;;;;;;;18.10;15.63;;;;;;;7.11;100.00;100711.06;5346116;27;20780;-75
2022/04/22 04:08:10;;;;;;;17.42;14.40;;;;;;;7.03;100.00;100710.81;5351169;27;20027;-74
2022/04/22 04:16:21;;;;;;;23.45;15.48;;;;;;;7.01;100.00;100710.94;5355009;27;20433;-74
2022/04/22 04:23:14;;;;;;;19.30;16.00;;;;;;;7.02;100.00;100717.94;5354504;27;20492;-74
2022/04/22 04:24:34;;;;;;;18.83;15.88;;;;;;;6.97;100.00;100704.22;5345046;27;20051;-74
2022/04/22 04:27:07;;;;;;;19.13;16.75;;;;;;;6.95;100.00;100711.44;5351283;27;20397;-74
2022/04/22 04:29:39;;;;;;;20.67;15.88;;;;;;;6.89;100.00;100706.63;5354282;27;20023;-74
2022/04/22 04:32:10;;;;;;;21.13;16.95;;;;;;;6.88;100.00;100702.31;5353036;27;20065;-75
2022/04/22 04:34:41;;;;;;;21.13;17.17;;;;;;;6.81;100.00;100702.78;5350872;27;20028;-74
2022/04/22 04:37:19;;;;;;;19.83;16.40;;;;;;;6.91;100.00;100700.25;5346125;27;20039;-75
2022/04/22 04:39:53;;;;;;;22.88;18.25;;;;;;;7.04;100.00;100705.41;5348060;27;20019;-74
2022/04/22 04:42:29;;;;;;;21.75;17.23;;;;;;;7.10;100.00;100707.59;5346682;27;20459;-74
2022/04/22 04:45:01;;;;;;;24.10;17.02;;;;;;;7.13;100.00;100709.13;5349324;27;20408;-74
2022/04/22 04:47:42;;;;;;;19.85;15.50;;;;;;;7.30;100.00;100713.09;5348971;27;20403;-76
2022/04/22 04:50:13;;;;;;;20.08;17.13;;;;;;;7.40;100.00;100724.66;5348535;27;20055;-76
2022/04/22 04:52:48;;;;;;;21.58;17.30;;;;;;;7.43;100.00;100710.28;5350077;27;20102;-76
2022/04/22 04:55:23;;;;;;;21.17;18.10;;;;;;;7.49;100.00;100709.78;5352342;27;20462;-74
2022/04/22 04:57:58;;;;;;;22.33;17.67;;;;;;;7.50;100.00;100704.34;5348235;27;20107;-75
2022/04/22 05:00:40;;;;;;;20.73;17.02;;;;;;;7.50;100.00;100699.03;5344588;27;20031;-75
2022/04/22 05:03:14;;;;;;;20.80;16.48;;;;;;;7.49;100.00;100709.78;5346475;27;20046;-74
2022/04/22 05:05:46;;;;;;;20.15;16.70;;;;;;;7.46;100.00;100702.06;5348071;27;20449;-75
2022/04/22 05:08:17;;;;;;;20.85;17.30;;;;;;;7.50;100.00;100703.50;5346360;27;20023;-75
2022/04/22 05:10:48;;;;;;;20.67;16.80;;;;;;;7.47;100.00;100704.59;5349196;27;20019;-75
2022/04/22 05:13:22;;;;;;;23.33;17.55;;;;;;;7.43;100.00;100689.03;5347991;27;20027;-75
2022/04/22 05:16:00;;;;;;;22.42;16.77;;;;;;;7.61;100.00;100703.47;5353231;27;20027;-74
2022/04/22 05:18:31;;;;;;;20.15;15.90;;;;;;;7.76;100.00;100704.81;5352713;27;20118;-74
2022/04/22 05:21:02;;;;;;;23.90;17.60;;;;;;;7.87;100.00;100708.41;5360968;27;20451;-75
2022/04/22 05:23:34;;;;;;;20.17;15.70;;;;;;;7.99;100.00;100710.03;5360261;27;20430;-75
2022/04/22 05:26:05;;;;;;;20.15;16.17;;;;;;;8.13;100.00;100708.88;5357137;27;20031;-75
2022/04/22 05:28:36;;;;;;;18.40;15.52;;;;;;;8.22;100.00;100702.78;5365504;27;20035;-75
2022/04/22 05:34:01;;;;;;;20.13;16.30;;;;;;;8.55;100.00;100703.53;5367688;27;20461;-75
2022/04/22 05:36:35;;;;;;;21.38;15.20;;;;;;;8.72;100.00;100706.56;5350929;27;20067;-75
2022/04/22 05:39:08;;;;;;;21.45;16.15;;;;;;;8.92;100.00;100710.13;5356807;27;20538;-75
2022/04/22 05:41:40;;;;;;;25.13;16.63;;;;;;;9.09;100.00;100707.66;5353437;27;20084;-75
2022/04/22 05:44:11;;;;;;;22.52;16.40;;;;;;;9.28;100.00;100708.69;5348321;27;20031;-75
2022/04/22 05:46:42;;;;;;;22.10;16.23;;;;;;;9.42;100.00;100702.13;5352230;27;20035;-75
2022/04/22 05:49:14;;;;;;;17.17;15.35;;;;;;;9.65;100.00;100719.53;5353786;27;20465;-75
2022/04/22 05:51:45;;;;;;;18.60;15.50;;;;;;;9.78;100.00;100715.72;5352374;27;22523;-74
2022/04/22 05:54:16;;;;;;;22.67;17.35;;;;;;;9.98;100.00;100705.94;5350301;27;20397;-74
2022/04/22 05:56:47;;;;;;;21.63;16.80;;;;;;;10.12;100.00;100708.16;5352363;27;20043;-74
2022/04/22 05:59:19;;;;;;;23.30;17.02;;;;;;;10.29;100.00;100713.72;5352726;27;20027;-74
2022/04/22 06:01:50;;;;;;;22.17;17.48;;;;;;;10.50;100.00;100706.41;5349922;27;20527;-74
2022/04/22 06:04:21;;;;;;;19.40;15.80;;;;;;;10.68;100.00;100709.16;5352299;27;20046;-75
2022/04/22 06:06:53;;;;;;;21.83;17.48;;;;;;;10.79;100.00;100713.47;5351188;27;20047;-75
2022/04/22 06:12:14;;;;;;;20.48;16.85;;;;;;;11.13;100.00;100707.53;5352558;27;20035;-74
2022/04/22 06:14:46;;;;;;;18.08;16.33;;;;;;;11.30;100.00;100708.56;5352153;27;20054;-74
2022/04/22 06:17:18;;;;;;;18.02;15.75;;;;;;;11.61;100.00;100708.22;5359836;27;20024;-74
2022/04/22 06:19:49;;;;;;;20.15;16.10;;;;;;;11.77;100.00;100708.34;5364817;27;20096;-74
2022/04/22 06:22:20;;;;;;;21.00;16.20;;;;;;;11.87;100.00;100698.41;5365930;27;20039;-75
2022/04/22 06:24:52;;;;;;;19.20;16.75;;;;;;;12.06;100.00;100705.47;5367471;27;20019;-75
2022/04/22 06:27:24;;;;;;;20.48;15.98;;;;;;;12.39;100.00;100702.16;5347505;27;20382;-75
2022/04/22 06:29:56;;;;;;;19.02;17.02;;;;;;;12.78;100.00;100699.88;5366329;27;20027;-75
2022/04/22 06:32:28;;;;;;;18.52;15.52;;;;;;;13.01;100.00;100702.81;5362022;27;20023;-75
2022/04/22 06:34:59;;;;;;;18.27;16.38;;;;;;;13.16;100.00;100703.00;5359933;27;20020;-75
2022/04/22 06:37:43;;;;;;;19.50;15.63;;;;;;;13.40;100.00;100704.94;5342699;27;20020;-75
2022/04/22 06:45:59;;;;;;;19.73;15.70;;;;;;;13.30;100.00;100695.34;5350758;27;20483;-75
2022/04/22 06:48:32;;;;;;;17.30;15.50;;;;;;;13.56;100.00;100703.31;5345218;27;20523;-74
2022/04/22 06:51:06;;;;;;;17.70;15.88;;;;;;;14.07;100.00;100695.13;5343939;27;20031;-75
2022/04/22 06:53:38;;;;;;;18.15;15.73;;;;;;;14.34;100.00;100694.75;5356038;27;20495;-75
2022/04/22 06:56:09;;;;;;;19.65;15.48;;;;;;;14.72;100.00;100694.16;5368883;27;20377;-75
2022/04/22 06:58:41;;;;;;;20.33;15.45;;;;;;;15.37;100.00;100701.06;5370739;27;20519;-75
2022/04/22 07:01:13;;;;;;;17.55;14.40;;;;;;;15.00;100.00;100699.09;5368362;27;20038;-75
2022/04/22 07:03:44;;;;;;;16.42;14.73;;;;;;;15.34;100.00;100704.13;5359777;27;20477;-75
2022/04/22 07:06:16;;;;;;;16.15;14.45;;;;;;;15.16;100.00;100703.56;5346170;27;20020;-75
2022/04/22 07:08:48;;;;;;;16.73;14.82;;;;;;;15.30;100.00;100686.69;5344503;27;20059;-75
2022/04/22 07:11:28;;;;;;;16.67;14.95;;;;;;;15.58;100.00;100694.22;5347453;27;20016;-75
2022/04/22 07:14:03;;;;;;;17.85;15.05;;;;;;;15.83;100.00;100697.59;5358604;27;20024;-75
2022/04/22 07:16:34;;;;;;;16.08;14.30;;;;;;;15.76;100.00;100696.66;5347807;27;20036;-75
2022/04/22 07:19:06;;;;;;;17.73;14.40;;;;;;;16.06;100.00;100681.44;5346820;27;20104;-76
2022/04/22 07:21:38;;;;;;;16.88;15.13;;;;;;;15.69;100.00;100689.28;5347543;27;20028;-75
2022/04/22 07:24:09;;;;;;;16.35;14.63;;;;;;;15.74;100.00;100685.19;5363611;27;20112;-75
2022/04/22 07:26:42;;;;;;;14.75;13.35;;;;;;;16.32;100.00;100678.34;5369141;27;20046;-75
2022/04/22 07:29:14;;;;;;;17.15;13.90;;;;;;;16.95;100.00;100681.50;5368005;27;20019;-74
2022/04/22 07:31:45;;;;;;;14.40;12.90;;;;;;;16.84;100.00;100681.16;5369304;27;20735;-75
2022/04/22 07:34:17;;;;;;;16.63;14.60;;;;;;;17.53;100.00;100676.13;5369737;27;20080;-75
2022/04/22 07:36:48;;;;;;;15.45;13.93;;;;;;;18.09;100.00;100666.47;5368741;27;20503;-75
2022/04/22 07:39:20;;;;;;;15.15;13.52;;;;;;;18.28;100.00;100673.03;5349150;27;20028;-74
2022/04/22 07:41:51;;;;;;;16.15;13.07;;;;;;;17.95;100.00;100673.63;5346354;27;20032;-73
2022/04/22 07:47:14;;;;;;;16.20;13.90;;;;;;;16.69;100.00;100664.94;5369015;27;20113;-76
2022/04/22 07:49:46;;;;;;;17.63;14.45;;;;;;;16.29;100.00;100675.19;5369170;27;20167;-75
2022/04/22 07:52:17;;;;;;;15.40;13.77;;;;;;;16.33;100.00;100681.84;5366238;27;20392;-75
2022/04/22 07:54:49;;;;;;;14.88;13.27;;;;;;;16.18;100.00;100663.84;5369223;27;20015;-75
2022/04/22 07:57:21;;;;;;;15.35;13.73;;;;;;;17.65;100.00;100672.91;5368661;27;20046;-75
2022/04/22 07:59:52;;;;;;;15.45;12.52;;;;;;;19.02;100.00;100674.28;5369480;27;20023;-75
2022/04/22 08:02:25;;;;;;;14.73;13.00;;;;;;;18.81;99.65;100667.09;5352274;27;20111;-75
2022/04/22 08:04:56;;;;;;;14.32;12.95;;;;;;;18.69;100.00;100672.25;5347710;27;20081;-75
2022/04/22 08:07:27;;;;;;;17.52;13.02;;;;;;;18.22;100.00;100660.34;5346232;27;20019;-75
2022/04/22 08:09:58;;;;;;;14.02;12.48;;;;;;;18.26;100.00;100659.75;5346007;27;20028;-75
2022/04/22 08:12:29;;;;;;;13.88;12.40;;;;;;;17.97;100.00;100670.72;5346629;27;20038;-75
2022/04/22 08:15:03;;;;;;;13.90;12.38;;;;;;;17.52;100.00;100666.38;5347581;27;20030;-75
2022/04/22 08:17:38;;;;;;;14.35;12.85;;;;;;;16.97;100.00;100657.91;5366138;27;20457;-75
2022/04/22 08:20:11;;;;;;;14.15;12.75;;;;;;;16.63;100.00;100661.97;5367285;27;20401;-75
2022/04/22 08:22:44;;;;;;;14.80;13.20;;;;;;;16.19;100.00;100661.97;5367476;27;20019;-75
2022/04/22 08:25:15;;;;;;;14.27;12.77;;;;;;;15.81;100.00;100660.16;5368268;27;20020;-75
2022/04/22 08:27:47;;;;;;;14.52;13.02;;;;;;;15.58;100.00;100654.72;5368802;27;20392;-75
2022/04/22 08:30:19;;;;;;;15.30;13.70;;;;;;;15.31;100.00;100661.50;5368055;27;20019;-75
2022/04/22 08:32:50;;;;;;;15.07;13.60;;;;;;;15.09;100.00;100661.28;5366753;27;20022;-75
2022/04/22 08:35:22;;;;;;;13.95;12.65;;;;;;;15.05;100.00;100659.94;5362730;27;20072;-75
2022/04/22 08:37:54;;;;;;;15.70;14.00;;;;;;;15.14;100.00;100650.00;5346114;27;20024;-75
2022/04/22 08:40:27;;;;;;;15.32;13.93;;;;;;;15.30;100.00;100641.00;5346685;27;20114;-75
2022/04/22 08:43:01;;;;;;;15.02;13.60;;;;;;;15.88;100.00;100627.97;5346757;27;20046;-75
2022/04/22 08:45:33;;;;;;;15.82;14.23;;;;;;;16.47;100.00;100627.19;5351511;27;20023;-75
2022/04/22 08:50:55;;;;;;;14.93;13.40;;;;;;;17.79;100.00;100626.13;5346576;27;20540;-75
2022/04/22 08:53:29;;;;;;;14.82;13.10;;;;;;;18.55;100.00;100633.53;5345883;27;20029;-74
2022/04/22 08:56:02;;;;;;;14.35;11.93;;;;;;;19.25;100.00;100636.94;5346158;27;20102;-75
2022/04/22 08:58:36;;;;;;;13.48;12.07;;;;;;;21.09;84.70;100639.84;5347824;27;20024;-75
2022/04/22 09:01:07;;;;;;;12.65;11.35;;;;;;;21.65;69.85;100640.13;5368048;27;20023;-75
2022/04/22 09:03:38;;;;;;;12.55;11.32;;;;;;;22.67;62.46;100645.25;5363841;27;20515;-75
2022/04/22 09:06:10;;;;;;;13.40;12.07;;;;;;;23.24;59.52;100635.94;5367673;27;20007;-75
2022/04/22 09:08:41;;;;;;;11.80;10.70;;;;;;;22.83;57.66;100635.63;5363848;27;20039;-75
2022/04/22 09:11:13;;;;;;;12.60;11.38;;;;;;;21.77;59.76;100627.50;5346500;27;20019;-75
2022/04/22 09:13:44;;;;;;;11.98;10.88;;;;;;;20.85;63.82;100619.72;5345951;27;20040;-75
2022/04/22 09:16:19;;;;;;;12.23;10.95;;;;;;;20.05;74.11;100629.94;5346651;27;20094;-75
2022/04/22 09:18:58;;;;;;;12.90;11.60;;;;;;;19.81;81.13;100641.19;5346352;27;20020;-75
2022/04/22 09:21:30;;;;;;;12.38;10.98;;;;;;;19.37;83.35;100623.66;5343585;27;20026;-75
2022/04/22 09:24:13;;;;;;;12.85;11.55;;;;;;;19.06;89.46;100624.22;5361060;27;20102;-75
2022/04/22 09:26:44;;;;;;;12.40;11.07;;;;;;;18.68;92.84;100613.84;5367024;27;20110;-75
2022/04/22 09:29:15;;;;;;;11.77;10.27;;;;;;;19.37;85.66;100604.72;5366321;27;20106;-75
2022/04/22 09:31:48;;;;;;;11.35;10.25;;;;;;;19.89;78.50;100609.56;5366289;27;20379;-75
2022/04/22 09:34:42;;;;;;;10.07;9.18;;;;;;;19.23;80.59;100611.13;5366009;27;20030;-75
2022/04/22 09:43:09;;;;;;;11.93;10.82;;;;;;;17.28;100.00;100599.34;5365612;27;20035;-76
2022/04/22 09:45:41;;;;;;;12.90;11.35;;;;;;;17.26;100.00;100588.75;5355150;27;20488;-75
2022/04/22 09:48:14;;;;;;;11.75;9.95;;;;;;;17.12;100.00;100590.47;5346219;27;20048;-75
2022/04/22 09:50:52;;;;;;;12.27;10.95;;;;;;;17.50;100.00;100581.31;5363768;27;20023;-75
2022/04/22 09:53:34;;;;;;;12.15;10.70;;;;;;;17.42;100.00;100582.25;5366661;27;20024;-75
2022/04/22 09:56:07;;;;;;;11.85;10.75;;;;;;;17.46;100.00;100580.88;5366845;27;20491;-75
2022/04/22 09:58:42;;;;;;;12.32;10.70;;;;;;;18.12;97.66;100577.84;5348710;27;20065;-75
2022/04/22 10:01:13;;;;;;;11.85;10.65;;;;;;;18.63;93.07;100576.63;5346253;27;20028;-75
2022/04/22 10:03:46;;;;;;;10.95;9.25;;;;;;;18.97;82.46;100574.06;5346053;27;20031;-75
2022/04/22 10:06:18;;;;;;;11.02;9.80;;;;;;;18.20;81.44;100557.97;5345007;27;20430;-75
2022/04/22 10:08:52;;;;;;;10.82;9.73;;;;;;;17.72;88.62;100563.22;5345749;27;20073;-74
2022/04/22 10:11:25;;;;;;;11.07;9.77;;;;;;;17.07;97.26;100559.75;5345111;27;20574;-76
2022/04/22 10:13:59;;;;;;;10.40;9.40;;;;;;;16.76;95.48;100559.00;5347401;27;20024;-75
2022/04/22 10:16:31;;;;;;;10.55;9.63;;;;;;;16.24;100.00;100558.13;5345293;27;20015;-75
2022/04/22 10:19:04;;;;;;;11.20;10.18;;;;;;;15.99;100.00;100579.13;5345845;27;20016;-75
2022/04/22 10:21:36;;;;;;;11.80;10.20;;;;;;;16.01;100.00;100562.81;5344771;27;20024;-75
2022/04/22 10:24:08;;;;;;;12.15;9.60;;;;;;;15.91;100.00;100556.84;5356406;27;20053;-74
2022/04/22 10:26:40;;;;;;;11.05;9.98;;;;;;;15.95;100.00;100563.53;5370084;27;20073;-74
2022/04/22 10:29:12;;;;;;;11.95;10.63;;;;;;;16.28;100.00;100552.41;5371566;27;20049;-75
2022/04/22 10:31:44;;;;;;;12.55;10.25;;;;;;;16.58;100.00;100561.25;5371664;27;20494;-74
2022/04/22 10:34:15;;;;;;;12.45;11.20;;;;;;;18.09;98.82;100548.56;5371193;27;20015;-74
2022/04/22 10:36:54;;;;;;;12.18;10.68;;;;;;;18.91;90.63;100545.16;5349132;27;20034;-74
2022/04/22 10:39:32;;;;;;;12.82;11.48;;;;;;;18.51;88.83;100548.53;5363326;27;20023;-75
2022/04/22 10:42:14;;;;;;;12.02;10.80;;;;;;;18.01;91.54;100547.91;5369921;27;20111;-75
2022/04/22 10:47:45;;;;;;;12.02;10.82;;;;;;;16.63;99.89;100539.97;5348886;27;20039;-75
2022/04/22 10:50:37;;;;;;;11.60;10.50;;;;;;;16.62;100.00;100539.16;5348813;27;20471;-74
2022/04/22 10:53:23;;;;;;;11.65;10.48;;;;;;;16.42;100.00;100546.16;5356623;27;20019;-75
2022/04/22 10:56:26;;;;;;;15.95;10.00;;;;;;;16.38;100.00;100532.25;5370504;27;20019;-74
2022/04/22 10:59:15;;;;;;;11.90;10.77;;;;;;;16.23;100.00;100534.97;5368510;27;20027;-74
2022/04/22 11:01:48;;;;;;;14.57;10.43;;;;;;;16.32;100.00;100533.00;5369975;27;20043;-75
2022/04/22 11:04:23;;;;;;;12.15;10.95;;;;;;;16.84;100.00;100533.81;5371341;27;20020;-75
2022/04/22 11:06:56;;;;;;;11.80;10.27;;;;;;;17.04;99.58;100534.03;5359973;27;20125;-75
2022/04/22 11:09:31;;;;;;;12.13;10.90;;;;;;;16.95;98.53;100527.94;5348746;27;20414;-75
2022/04/22 11:12:03;;;;;;;13.50;10.85;;;;;;;16.85;99.38;100537.34;5348319;27;20098;-75
2022/04/22 11:14:44;;;;;;;13.35;10.88;;;;;;;16.75;100.00;100521.47;5348848;27;20103;-75
2022/04/22 11:17:31;;;;;;;12.60;11.02;;;;;;;16.87;100.00;100516.47;5347893;27;20019;-75
2022/04/22 11:20:02;;;;;;;;;;;;;;;17.06;98.48;100518.50;5348964;27;20089;-75
2022/04/22 11:22:53;;;;;;;12.35;10.57;;;;;;;16.90;100.00;100530.38;5346219;27;19931;-75
2022/04/22 11:25:25;;;;;;;12.10;10.90;;;;;;;16.94;100.00;100518.19;5354732;27;20401;-75
2022/04/22 11:27:58;;;;;;;12.88;11.23;;;;;;;16.86;99.49;100522.88;5369836;27;20039;-75
2022/04/22 11:30:32;;;;;;;12.65;11.45;;;;;;;16.43;100.00;100526.31;5368130;27;20536;-75
2022/04/22 11:33:23;;;;;;;12.38;11.07;;;;;;;16.11;100.00;100523.00;5369621;27;20020;-75
2022/04/22 11:35:58;;;;;;;15.15;11.55;;;;;;;15.80;100.00;100523.19;5369504;27;20106;-74
2022/04/22 11:38:31;;;;;;;16.55;11.60;;;;;;;15.46;100.00;100511.91;5368097;27;20038;-75
2022/04/22 11:41:11;;;;;;;14.25;11.68;;;;;;;15.30;100.00;100529.00;5354522;27;20026;-75
2022/04/22 11:43:44;;;;;;;13.43;12.02;;;;;;;15.34;100.00;100528.63;5347977;27;20415;-75
2022/04/22 11:46:17;;;;;;;17.67;11.30;;;;;;;15.39;100.00;100523.53;5365379;27;20023;-75
2022/04/22 11:48:53;;;;;;;13.82;11.90;;;;;;;15.76;100.00;100513.78;5368956;27;20047;-75
2022/04/22 11:51:28;;;;;;;14.63;11.20;;;;;;;16.15;100.00;100518.91;5368253;27;20429;-75
2022/04/22 11:54:01;;;;;;;13.13;11.82;;;;;;;16.35;100.00;100504.88;5368697;27;20016;-75
2022/04/22 11:56:35;;;;;;;13.10;11.50;;;;;;;16.71;100.00;100521.03;5367872;27;20012;-75
2022/04/22 11:59:06;;;;;;;14.07;12.10;;;;;;;17.11;100.00;100508.00;5367801;27;20019;-75
2022/04/22 12:10:07;;;;;;;13.73;10.95;;;;;;;18.82;84.34;100507.53;5347754;27;20036;-74
2022/04/22 12:12:52;;;;;;;21.05;11.43;;;;;;;19.25;85.75;100503.63;5347786;27;20389;-75
2022/04/22 12:15:24;;;;;;;17.15;11.13;;;;;;;19.55;77.93;100506.75;5347274;27;20469;-75
2022/04/22 12:17:56;;;;;;;12.23;10.50;;;;;;;19.74;75.95;100496.09;5350933;27;20038;-75
2022/04/22 12:20:28;;;;;;;15.68;10.25;;;;;;;20.43;70.73;100493.81;5368895;27;20027;-75
2022/04/22 12:23:00;;;;;;;13.90;10.85;;;;;;;20.60;65.35;100497.69;5368075;27;20047;-75
2022/04/22 12:25:31;;;;;;;11.68;9.98;;;;;;;20.91;62.50;100485.19;5369486;27;20015;-75
2022/04/22 12:28:13;;;;;;;11.65;10.57;;;;;;;20.44;62.74;100493.59;5368909;27;20030;-75
2022/04/22 12:30:44;;;;;;;10.82;9.90;;;;;;;20.41;62.66;100483.19;5368987;27;20403;-75
2022/04/22 12:33:18;;;;;;;13.00;10.05;;;;;;;20.45;62.71;100489.81;5347735;27;20028;-75